South AfricaFixed distance
BNAC Marathon
13 Apr2025
Distance
48km
Finishers
931730 men201 women
Winning time
2:50:57h
Median pace
9.28km/h
Pace distribution
931 finishers · 7.14–16.85 km/h · mean 9.64
Every finisher ran the same 48 km course, so these paces are directly comparable.
Histogram of finisher pace. 931 finishers ranged from 7.14 to 16.85 kilometres per hour, with a mean of 9.64 and a median of 9.28. The busiest band is 8.0 to 8.5 kilometres per hour, with 196 finishers.
Results
Ranks 101–150 of 931
| Rank | Runner | Time | Pace | Cat. | Placing |
|---|---|---|---|---|---|
| 101 | AEL RC | 4:03:16h | 11.84 | — | 95th M |
| 102 | Magnolia Road Runners | 4:03:40h | 11.82 | M35 | 96th M · 17th M35 |
| 103 | Miway Warriors | 4:03:43h | 11.82 | — | 97th M |
| 104 | Mogalakwena Athletics ... | 4:03:44h | 11.82 | M40 | 98th M · 30th M40 |
| 105 | Samancor Chrome Marath... | 4:03:56h | 11.81 | M40 | 99th M · 31st M40 |
| 106 | Runners of Hope | 4:04:51h | 11.76 | M40 | 100th M · 32nd M40 |
| 107 | Meyerton AC | 4:04:54h | 11.76 | W35 | 7th F · 3rd W35 |
| 108 | Jeppe Quondam Athletic... | 4:04:55h | 11.76 | M40 | 101st M · 33rd M40 |
| 109 | Actom Athletics Club | 4:04:55h | 11.76 | M23 | 101st M · 15th M23 |
| 110 | 4:05:01h | 11.75 | M35 | 103rd M · 18th M35 | |
| 111 | Midrand Striders | 4:05:29h | 11.73 | M40 | 104th M · 34th M40 |
| 112 | Nedbank Running Club CG | 4:05:29h | 11.73 | M40 | 104th M · 34th M40 |
| 113 | K-Way Jeppe Quondam AC | 4:05:51h | 11.71 | M35 | 106th M · 19th M35 |
| 114 | Ubora CGA | 4:06:01h | 11.71 | W40 | 8th F · 1st W40 |
| 115 | Runalex Athletics Club | 4:06:25h | 11.69 | M35 | 107th M · 20th M35 |
| 116 | Team Vitality Club CG | 4:06:48h | 11.67 | — | 108th M |
| 117 | Nedbank Running Club AVT | 4:07:56h | 11.62 | M50 | 109th M · 8th M50 |
| 118 | 4:08:28h | 11.59 | M40 | 110th M · 36th M40 | |
| 119 | Anglo RPM Marathon Club | 4:08:40h | 11.58 | M40 | 111th M · 37th M40 |
| 120 | Bellville AC | 4:08:44h | 11.58 | M23 | 112th M · 16th M23 |
| 121 | Hollywood AC CN | 4:08:44h | 11.58 | M35 | 112th M · 21st M35 |
| 123 | Hollywood AC CN | 4:08:47h | 11.58 | M40 | 114th M · 38th M40 |
| 124 | Boksburg AC | 4:08:50h | 11.57 | M45 | 115th M · 15th M45 |
| 125 | Runners of Hope | 4:08:55h | 11.57 | — | 116th M |
| 126 | Benoni Harriers | 4:09:11h | 11.56 | M40 | 117th M · 39th M40 |
| 127 | Germiston Callies Harr... | 4:09:45h | 11.53 | — | 118th M |
| 128 | Jeppe Quondam Athletic... | 4:09:50h | 11.53 | M60 | 119th M · 2nd M60 |
| 129 | Jeppe Quondam Athletic... | 4:09:50h | 11.53 | M45 | 119th M · 16th M45 |
| 130 | FAT Cats AC | 4:10:19h | 11.51 | M40 | 121st M · 40th M40 |
| 131 | 32Gi Running Club CG | 4:10:30h | 11.50 | M55 | 122nd M · 2nd M55 |
| 132 | Rainbow AC CG | 4:10:47h | 11.48 | M45 | 123rd M · 17th M45 |
| 133 | Phobians | 4:11:11h | 11.47 | W35 | 9th F · 4th W35 |
| 134 | 4:11:15h | 11.46 | — | 124th M | |
| 135 | Mogalakwena Athletics ... | 4:11:31h | 11.45 | M45 | 125th M · 18th M45 |
| 136 | Rhenus | 4:11:37h | 11.45 | — | 126th M |
| 137 | Hollywood AC CN | 4:12:40h | 11.40 | M40 | 127th M · 41st M40 |
| 138 | KWA-Thema Striders | 4:12:45h | 11.39 | M55 | 128th M · 3rd M55 |
| 139 | Greenstone Hill AC | 4:12:46h | 11.39 | M35 | 129th M · 22nd M35 |
| 140 | Greenstone Hill AC | 4:12:46h | 11.39 | M45 | 129th M · 19th M45 |
| 141 | Boksburg AC | 4:13:29h | 11.36 | M40 | 131st M · 42nd M40 |
| 142 | Eskom AC GN | 4:13:44h | 11.35 | M40 | 132nd M · 43rd M40 |
| 143 | Gauteng Department of ... | 4:13:55h | 11.34 | M23 | 133rd M · 17th M23 |
| 144 | Correctional Services CG | 4:14:16h | 11.33 | M35 | 134th M · 23rd M35 |
| 145 | Run Zone AC CGN | 4:14:16h | 11.33 | M40 | 134th M · 44th M40 |
| 146 | Correctional Services CG | 4:14:45h | 11.30 | M45 | 136th M · 20th M45 |
| 147 | Alberton Amateur Athle... | 4:15:13h | 11.29 | M23 | 137th M · 18th M23 |
| 148 | Team Vitality Club CG | 4:15:41h | 11.26 | W40 | 10th F · 2nd W40 |
| 149 | Boksburg AC | 4:16:10h | 11.24 | M60 | 138th M · 3rd M60 |
| 151 | Black Diamond AC | 4:16:41h | 11.22 | M55 | 139th M · 4th M55 |
| 152 | Makhudutumaga AC | 4:16:45h | 11.22 | M23 | 140th M · 19th M23 |
- 101AEL RC95th MTime4:03:16hPace11.84
- 102Magnolia Road Runners96th M · 17th M35Time4:03:40hPace11.82Cat.M35
- 103Miway Warriors97th MTime4:03:43hPace11.82
- 104Mogalakwena Athletics ...98th M · 30th M40Time4:03:44hPace11.82Cat.M40
- 105Samancor Chrome Marath...99th M · 31st M40Time4:03:56hPace11.81Cat.M40
- 106Runners of Hope100th M · 32nd M40Time4:04:51hPace11.76Cat.M40
- 107Meyerton AC7th F · 3rd W35Time4:04:54hPace11.76Cat.W35
- 108Jeppe Quondam Athletic...101st M · 33rd M40Time4:04:55hPace11.76Cat.M40
- 109Actom Athletics Club101st M · 15th M23Time4:04:55hPace11.76Cat.M23
- 110103rd M · 18th M35Time4:05:01hPace11.75Cat.M35
- 111Midrand Striders104th M · 34th M40Time4:05:29hPace11.73Cat.M40
- 112Nedbank Running Club CG104th M · 34th M40Time4:05:29hPace11.73Cat.M40
- 113K-Way Jeppe Quondam AC106th M · 19th M35Time4:05:51hPace11.71Cat.M35
- 114Ubora CGA8th F · 1st W40Time4:06:01hPace11.71Cat.W40
- 115Runalex Athletics Club107th M · 20th M35Time4:06:25hPace11.69Cat.M35
- 116Team Vitality Club CG108th MTime4:06:48hPace11.67
- 117Nedbank Running Club AVT109th M · 8th M50Time4:07:56hPace11.62Cat.M50
- 118110th M · 36th M40Time4:08:28hPace11.59Cat.M40
- 119Anglo RPM Marathon Club111th M · 37th M40Time4:08:40hPace11.58Cat.M40
- 120Bellville AC112th M · 16th M23Time4:08:44hPace11.58Cat.M23
- 121Hollywood AC CN112th M · 21st M35Time4:08:44hPace11.58Cat.M35
- 123Hollywood AC CN114th M · 38th M40Time4:08:47hPace11.58Cat.M40
- 124Boksburg AC115th M · 15th M45Time4:08:50hPace11.57Cat.M45
- 125Runners of Hope116th MTime4:08:55hPace11.57
- 126Benoni Harriers117th M · 39th M40Time4:09:11hPace11.56Cat.M40
- 127Germiston Callies Harr...118th MTime4:09:45hPace11.53
- 128Jeppe Quondam Athletic...119th M · 2nd M60Time4:09:50hPace11.53Cat.M60
- 129Jeppe Quondam Athletic...119th M · 16th M45Time4:09:50hPace11.53Cat.M45
- 130FAT Cats AC121st M · 40th M40Time4:10:19hPace11.51Cat.M40
- 13132Gi Running Club CG122nd M · 2nd M55Time4:10:30hPace11.50Cat.M55
- 132Rainbow AC CG123rd M · 17th M45Time4:10:47hPace11.48Cat.M45
- 133Phobians9th F · 4th W35Time4:11:11hPace11.47Cat.W35
- 134124th MTime4:11:15hPace11.46
- 135Mogalakwena Athletics ...125th M · 18th M45Time4:11:31hPace11.45Cat.M45
- 136Rhenus126th MTime4:11:37hPace11.45
- 137Hollywood AC CN127th M · 41st M40Time4:12:40hPace11.40Cat.M40
- 138KWA-Thema Striders128th M · 3rd M55Time4:12:45hPace11.39Cat.M55
- 139Greenstone Hill AC129th M · 22nd M35Time4:12:46hPace11.39Cat.M35
- 140Greenstone Hill AC129th M · 19th M45Time4:12:46hPace11.39Cat.M45
- 141Boksburg AC131st M · 42nd M40Time4:13:29hPace11.36Cat.M40
- 142Eskom AC GN132nd M · 43rd M40Time4:13:44hPace11.35Cat.M40
- 143Gauteng Department of ...133rd M · 17th M23Time4:13:55hPace11.34Cat.M23
- 144Correctional Services CG134th M · 23rd M35Time4:14:16hPace11.33Cat.M35
- 145Run Zone AC CGN134th M · 44th M40Time4:14:16hPace11.33Cat.M40
- 146Correctional Services CG136th M · 20th M45Time4:14:45hPace11.30Cat.M45
- 147Alberton Amateur Athle...137th M · 18th M23Time4:15:13hPace11.29Cat.M23
- 148Team Vitality Club CG10th F · 2nd W40Time4:15:41hPace11.26Cat.W40
- 149Boksburg AC138th M · 3rd M60Time4:16:10hPace11.24Cat.M60
- 151Black Diamond AC139th M · 4th M55Time4:16:41hPace11.22Cat.M55
- 152Makhudutumaga AC140th M · 19th M23Time4:16:45hPace11.22Cat.M23
Showing ranks 101–150 of 931